sensor_id;sensor_type;location;lat;lon;timestamp;pressure;altitude;pressure_sealevel;temperature;humidity
60874;BME280;46715;40.642;-7.920;2023-07-31T00:01:12;96729.19;;;14.99;97.59
60874;BME280;46715;40.642;-7.920;2023-07-31T00:03:12;96723.94;;;14.99;98.92
60874;BME280;46715;40.642;-7.920;2023-07-31T00:05:13;96723.66;;;15.00;98.42
60874;BME280;46715;40.642;-7.920;2023-07-31T00:07:13;96726.56;;;14.99;98.79
60874;BME280;46715;40.642;-7.920;2023-07-31T00:09:14;96717.44;;;14.96;99.18
60874;BME280;46715;40.642;-7.920;2023-07-31T00:11:14;96726.06;;;14.97;99.75
60874;BME280;46715;40.642;-7.920;2023-07-31T00:13:15;96720.06;;;14.96;99.76
60874;BME280;46715;40.642;-7.920;2023-07-31T00:15:15;96727.13;;;14.96;99.76
60874;BME280;46715;40.642;-7.920;2023-07-31T00:17:16;96723.44;;;14.97;99.37
60874;BME280;46715;40.642;-7.920;2023-07-31T00:19:17;96714.50;;;14.98;99.43
60874;BME280;46715;40.642;-7.920;2023-07-31T00:21:17;96723.16;;;14.98;99.50
60874;BME280;46715;40.642;-7.920;2023-07-31T00:23:18;96716.63;;;14.96;99.27
60874;BME280;46715;40.642;-7.920;2023-07-31T00:25:18;96717.97;;;14.93;99.67
60874;BME280;46715;40.642;-7.920;2023-07-31T00:27:19;96717.50;;;14.91;100.00
60874;BME280;46715;40.642;-7.920;2023-07-31T00:29:20;96720.69;;;14.88;100.00
60874;BME280;46715;40.642;-7.920;2023-07-31T00:31:20;96718.31;;;14.87;100.00
60874;BME280;46715;40.642;-7.920;2023-07-31T00:33:22;96721.03;;;14.81;100.00
60874;BME280;46715;40.642;-7.920;2023-07-31T00:35:22;96715.56;;;14.78;100.00
60874;BME280;46715;40.642;-7.920;2023-07-31T00:37:23;96718.75;;;14.75;100.00
60874;BME280;46715;40.642;-7.920;2023-07-31T00:39:23;96714.59;;;14.69;100.00
60874;BME280;46715;40.642;-7.920;2023-07-31T00:41:24;96717.03;;;14.65;100.00
60874;BME280;46715;40.642;-7.920;2023-07-31T00:43:24;96708.41;;;14.59;100.00
60874;BME280;46715;40.642;-7.920;2023-07-31T00:45:25;96700.03;;;14.57;100.00
60874;BME280;46715;40.642;-7.920;2023-07-31T00:47:27;96707.41;;;14.55;100.00
60874;BME280;46715;40.642;-7.920;2023-07-31T00:49:28;96706.13;;;14.53;100.00
60874;BME280;46715;40.642;-7.920;2023-07-31T00:51:29;96712.94;;;14.54;100.00
60874;BME280;46715;40.642;-7.920;2023-07-31T00:53:30;96709.03;;;14.51;100.00
60874;BME280;46715;40.642;-7.920;2023-07-31T00:55:31;96711.09;;;14.54;100.00
60874;BME280;46715;40.642;-7.920;2023-07-31T00:57:31;96711.59;;;14.56;100.00
60874;BME280;46715;40.642;-7.920;2023-07-31T00:59:32;96711.31;;;14.58;100.00
60874;BME280;46715;40.642;-7.920;2023-07-31T01:01:32;96701.88;;;14.57;100.00
60874;BME280;46715;40.642;-7.920;2023-07-31T01:03:33;96694.56;;;14.54;100.00
60874;BME280;46715;40.642;-7.920;2023-07-31T01:12:07;96693.13;;;14.42;100.00
60874;BME280;46715;40.642;-7.920;2023-07-31T01:14:09;96694.19;;;14.41;100.00
60874;BME280;46715;40.642;-7.920;2023-07-31T01:16:10;96695.53;;;14.39;100.00
60874;BME280;46715;40.642;-7.920;2023-07-31T01:18:10;96691.84;;;14.40;100.00
60874;BME280;46715;40.642;-7.920;2023-07-31T01:20:12;96684.75;;;14.40;100.00
60874;BME280;46715;40.642;-7.920;2023-07-31T01:24:50;96683.53;;;14.32;100.00
60874;BME280;46715;40.642;-7.920;2023-07-31T01:26:45;96684.66;;;14.26;100.00
60874;BME280;46715;40.642;-7.920;2023-07-31T01:30:51;96687.13;;;14.18;100.00
60874;BME280;46715;40.642;-7.920;2023-07-31T01:32:53;96687.41;;;14.16;100.00
60874;BME280;46715;40.642;-7.920;2023-07-31T01:34:55;96685.53;;;14.17;100.00
60874;BME280;46715;40.642;-7.920;2023-07-31T01:36:56;96681.59;;;14.19;100.00
60874;BME280;46715;40.642;-7.920;2023-07-31T01:38:58;96685.41;;;14.27;100.00
60874;BME280;46715;40.642;-7.920;2023-07-31T01:40:59;96681.06;;;14.41;100.00
60874;BME280;46715;40.642;-7.920;2023-07-31T01:43:00;96678.44;;;14.41;100.00
60874;BME280;46715;40.642;-7.920;2023-07-31T01:45:00;96674.50;;;14.44;100.00
60874;BME280;46715;40.642;-7.920;2023-07-31T01:47:02;96680.16;;;14.51;100.00
60874;BME280;46715;40.642;-7.920;2023-07-31T01:49:02;96671.66;;;14.59;100.00
60874;BME280;46715;40.642;-7.920;2023-07-31T01:51:03;96673.25;;;14.60;100.00
60874;BME280;46715;40.642;-7.920;2023-07-31T01:53:08;96670.84;;;14.64;100.00
60874;BME280;46715;40.642;-7.920;2023-07-31T01:55:08;96663.78;;;14.64;100.00
60874;BME280;46715;40.642;-7.920;2023-07-31T01:57:09;96667.16;;;14.65;100.00
60874;BME280;46715;40.642;-7.920;2023-07-31T01:59:09;96667.16;;;14.65;100.00
60874;BME280;46715;40.642;-7.920;2023-07-31T02:01:10;96670.63;;;14.60;100.00
60874;BME280;46715;40.642;-7.920;2023-07-31T02:03:10;96663.25;;;14.62;100.00
60874;BME280;46715;40.642;-7.920;2023-07-31T02:05:11;96666.09;;;14.66;100.00
60874;BME280;46715;40.642;-7.920;2023-07-31T02:07:12;96667.16;;;14.65;100.00
60874;BME280;46715;40.642;-7.920;2023-07-31T02:09:12;96659.00;;;14.66;100.00
60874;BME280;46715;40.642;-7.920;2023-07-31T02:11:13;96655.31;;;14.68;100.00
60874;BME280;46715;40.642;-7.920;2023-07-31T02:13:13;96663.50;;;14.66;100.00
60874;BME280;46715;40.642;-7.920;2023-07-31T02:15:14;96660.34;;;14.64;100.00
60874;BME280;46715;40.642;-7.920;2023-07-31T02:17:15;96660.34;;;14.64;100.00
60874;BME280;46715;40.642;-7.920;2023-07-31T02:19:15;96650.78;;;14.73;100.00
60874;BME280;46715;40.642;-7.920;2023-07-31T02:21:16;96659.84;;;14.81;100.00
60874;BME280;46715;40.642;-7.920;2023-07-31T02:23:17;96658.78;;;14.82;100.00
60874;BME280;46715;40.642;-7.920;2023-07-31T02:25:18;96653.25;;;14.83;100.00
60874;BME280;46715;40.642;-7.920;2023-07-31T02:27:19;96649.72;;;14.74;100.00
60874;BME280;46715;40.642;-7.920;2023-07-31T02:29:20;96648.53;;;14.42;100.00
60874;BME280;46715;40.642;-7.920;2023-07-31T02:31:20;96649.75;;;14.50;100.00
60874;BME280;46715;40.642;-7.920;2023-07-31T02:33:21;96648.16;;;14.49;100.00
60874;BME280;46715;40.642;-7.920;2023-07-31T02:35:21;96646.81;;;14.52;100.00
60874;BME280;46715;40.642;-7.920;2023-07-31T02:37:22;96646.47;;;14.39;100.00
60874;BME280;46715;40.642;-7.920;2023-07-31T02:39:23;96647.25;;;14.40;100.00
60874;BME280;46715;40.642;-7.920;2023-07-31T02:41:23;96645.13;;;14.42;100.00
60874;BME280;46715;40.642;-7.920;2023-07-31T02:43:24;96645.16;;;14.37;100.00
60874;BME280;46715;40.642;-7.920;2023-07-31T02:45:24;96642.00;;;14.40;100.00
60874;BME280;46715;40.642;-7.920;2023-07-31T02:47:25;96645.34;;;14.45;100.00
60874;BME280;46715;40.642;-7.920;2023-07-31T02:49:25;96645.41;;;14.40;100.00
60874;BME280;46715;40.642;-7.920;2023-07-31T02:51:26;96647.59;;;14.33;100.00
60874;BME280;46715;40.642;-7.920;2023-07-31T02:53:26;96651.88;;;14.24;100.00
60874;BME280;46715;40.642;-7.920;2023-07-31T02:55:27;96644.88;;;14.19;100.00
60874;BME280;46715;40.642;-7.920;2023-07-31T02:57:28;96640.00;;;14.31;100.00
60874;BME280;46715;40.642;-7.920;2023-07-31T02:59:28;96652.59;;;14.29;100.00
60874;BME280;46715;40.642;-7.920;2023-07-31T03:01:29;96654.41;;;14.34;100.00
60874;BME280;46715;40.642;-7.920;2023-07-31T03:03:31;96651.22;;;14.37;100.00
60874;BME280;46715;40.642;-7.920;2023-07-31T03:05:31;96649.66;;;14.36;100.00
60874;BME280;46715;40.642;-7.920;2023-07-31T03:07:32;96646.47;;;14.39;100.00
60874;BME280;46715;40.642;-7.920;2023-07-31T03:09:32;96646.81;;;14.32;100.00
60874;BME280;46715;40.642;-7.920;2023-07-31T03:11:32;96655.19;;;14.35;100.00
60874;BME280;46715;40.642;-7.920;2023-07-31T03:13:33;96650.69;;;14.35;100.00
60874;BME280;46715;40.642;-7.920;2023-07-31T03:15:33;96654.91;;;14.36;100.00
60874;BME280;46715;40.642;-7.920;2023-07-31T03:17:34;96648.38;;;14.33;100.00
60874;BME280;46715;40.642;-7.920;2023-07-31T03:19:35;96647.16;;;14.26;100.00
60874;BME280;46715;40.642;-7.920;2023-07-31T03:21:35;96654.22;;;14.25;100.00
60874;BME280;46715;40.642;-7.920;2023-07-31T03:23:36;96651.00;;;14.33;100.00
60874;BME280;46715;40.642;-7.920;2023-07-31T03:25:36;96651.41;;;14.41;100.00
60874;BME280;46715;40.642;-7.920;2023-07-31T03:27:37;96640.38;;;14.44;100.00
60874;BME280;46715;40.642;-7.920;2023-07-31T03:29:37;96650.59;;;14.45;100.00
60874;BME280;46715;40.642;-7.920;2023-07-31T03:31:38;96654.97;;;14.50;100.00
60874;BME280;46715;40.642;-7.920;2023-07-31T03:33:38;96650.72;;;14.54;100.00
60874;BME280;46715;40.642;-7.920;2023-07-31T03:35:39;96647.22;;;14.64;100.00
60874;BME280;46715;40.642;-7.920;2023-07-31T03:37:40;96650.13;;;14.62;100.00
60874;BME280;46715;40.642;-7.920;2023-07-31T03:39:41;96638.03;;;14.61;100.00
60874;BME280;46715;40.642;-7.920;2023-07-31T03:41:41;96648.06;;;14.59;100.00
60874;BME280;46715;40.642;-7.920;2023-07-31T03:43:41;96650.97;;;14.58;100.00
60874;BME280;46715;40.642;-7.920;2023-07-31T03:45:42;96644.59;;;14.64;100.00
60874;BME280;46715;40.642;-7.920;2023-07-31T03:47:43;96640.91;;;14.65;100.00
60874;BME280;46715;40.642;-7.920;2023-07-31T03:49:43;96640.66;;;14.61;100.00
60874;BME280;46715;40.642;-7.920;2023-07-31T03:51:44;96642.53;;;14.61;100.00
60874;BME280;46715;40.642;-7.920;2023-07-31T03:53:44;96637.72;;;14.68;100.00
60874;BME280;46715;40.642;-7.920;2023-07-31T03:55:45;96642.25;;;14.62;100.00
60874;BME280;46715;40.642;-7.920;2023-07-31T03:57:45;96641.53;;;14.57;100.00
60874;BME280;46715;40.642;-7.920;2023-07-31T03:59:46;96644.00;;;14.48;100.00
60874;BME280;46715;40.642;-7.920;2023-07-31T04:01:46;96638.81;;;14.43;100.00
60874;BME280;46715;40.642;-7.920;2023-07-31T04:03:47;96639.09;;;14.41;100.00
60874;BME280;46715;40.642;-7.920;2023-07-31T04:05:47;96634.97;;;14.35;100.00
60874;BME280;46715;40.642;-7.920;2023-07-31T04:07:48;96633.91;;;14.36;100.00
60874;BME280;46715;40.642;-7.920;2023-07-31T04:09:48;96638.88;;;14.38;100.00
60874;BME280;46715;40.642;-7.920;2023-07-31T04:11:49;96637.31;;;14.37;100.00
60874;BME280;46715;40.642;-7.920;2023-07-31T04:13:49;96636.59;;;14.31;100.00
60874;BME280;46715;40.642;-7.920;2023-07-31T04:15:50;96640.28;;;14.30;100.00
60874;BME280;46715;40.642;-7.920;2023-07-31T04:17:51;96636.38;;;14.27;100.00
60874;BME280;46715;40.642;-7.920;2023-07-31T04:19:51;96647.16;;;14.26;100.00
60874;BME280;46715;40.642;-7.920;2023-07-31T04:21:52;96648.16;;;14.30;100.00
60874;BME280;46715;40.642;-7.920;2023-07-31T04:23:52;96648.06;;;14.35;100.00
60874;BME280;46715;40.642;-7.920;2023-07-31T04:25:56;96646.81;;;14.32;100.00
60874;BME280;46715;40.642;-7.920;2023-07-31T04:27:56;96647.06;;;14.31;100.00
60874;BME280;46715;40.642;-7.920;2023-07-31T04:29:57;96641.63;;;14.27;100.00
60874;BME280;46715;40.642;-7.920;2023-07-31T04:31:57;96641.84;;;14.31;100.00
60874;BME280;46715;40.642;-7.920;2023-07-31T04:33:58;96641.34;;;14.29;100.00
60874;BME280;46715;40.642;-7.920;2023-07-31T04:35:59;96637.22;;;14.23;100.00
60874;BME280;46715;40.642;-7.920;2023-07-31T04:37:59;96640.63;;;14.23;100.00
60874;BME280;46715;40.642;-7.920;2023-07-31T04:40:00;96639.97;;;14.12;100.00
60874;BME280;46715;40.642;-7.920;2023-07-31T04:42:00;96637.09;;;14.09;100.00
60874;BME280;46715;40.642;-7.920;2023-07-31T04:44:01;96640.81;;;14.08;100.00
60874;BME280;46715;40.642;-7.920;2023-07-31T04:46:01;96636.91;;;14.05;100.00
60874;BME280;46715;40.642;-7.920;2023-07-31T04:48:02;96635.28;;;14.09;100.00
60874;BME280;46715;40.642;-7.920;2023-07-31T04:50:02;96635.22;;;14.14;100.00
60874;BME280;46715;40.642;-7.920;2023-07-31T04:52:03;96636.44;;;14.22;100.00
60874;BME280;46715;40.642;-7.920;2023-07-31T04:54:04;96632.97;;;14.27;100.00
60874;BME280;46715;40.642;-7.920;2023-07-31T04:56:04;96636.59;;;14.31;100.00
60874;BME280;46715;40.642;-7.920;2023-07-31T04:58:05;96631.84;;;14.33;100.00
60874;BME280;46715;40.642;-7.920;2023-07-31T05:00:05;96640.00;;;14.31;100.00
60874;BME280;46715;40.642;-7.920;2023-07-31T05:02:07;96632.91;;;14.32;100.00
60874;BME280;46715;40.642;-7.920;2023-07-31T05:04:08;96638.22;;;14.27;100.00
60874;BME280;46715;40.642;-7.920;2023-07-31T05:06:09;96633.53;;;14.24;100.00
60874;BME280;46715;40.642;-7.920;2023-07-31T05:08:09;96630.19;;;14.18;100.00
60874;BME280;46715;40.642;-7.920;2023-07-31T05:10:10;96638.56;;;14.20;100.00
60874;BME280;46715;40.642;-7.920;2023-07-31T05:12:10;96627.28;;;14.20;100.00
60874;BME280;46715;40.642;-7.920;2023-07-31T05:14:11;96636.19;;;14.19;100.00
60874;BME280;46715;40.642;-7.920;2023-07-31T05:16:11;96630.00;;;14.14;100.00
60874;BME280;46715;40.642;-7.920;2023-07-31T05:18:12;96645.44;;;14.16;100.00
60874;BME280;46715;40.642;-7.920;2023-07-31T05:20:12;96640.47;;;14.14;100.00
60874;BME280;46715;40.642;-7.920;2023-07-31T05:22:13;96641.91;;;14.26;100.00
60874;BME280;46715;40.642;-7.920;2023-07-31T05:24:13;96635.31;;;14.28;100.00
60874;BME280;46715;40.642;-7.920;2023-07-31T05:26:18;96638.50;;;14.25;100.00
60874;BME280;46715;40.642;-7.920;2023-07-31T05:28:21;96641.41;;;14.24;100.00
60874;BME280;46715;40.642;-7.920;2023-07-31T05:30:22;96645.06;;;14.23;100.00
60874;BME280;46715;40.642;-7.920;2023-07-31T05:32:22;96645.63;;;14.20;100.00
60874;BME280;46715;40.642;-7.920;2023-07-31T05:34:23;96647.25;;;14.15;100.00
60874;BME280;46715;40.642;-7.920;2023-07-31T05:36:23;96641.56;;;14.08;100.00
60874;BME280;46715;40.642;-7.920;2023-07-31T05:38:24;96642.53;;;13.93;100.00
60874;BME280;46715;40.642;-7.920;2023-07-31T05:40:24;96646.47;;;13.91;100.00
60874;BME280;46715;40.642;-7.920;2023-07-31T05:42:25;96647.28;;;13.91;100.00
60874;BME280;46715;40.642;-7.920;2023-07-31T05:44:25;96652.41;;;14.02;100.00
60874;BME280;46715;40.642;-7.920;2023-07-31T05:46:26;96647.00;;;13.93;100.00
60874;BME280;46715;40.642;-7.920;2023-07-31T05:48:26;96649.34;;;13.94;100.00
60874;BME280;46715;40.642;-7.920;2023-07-31T05:50:27;96658.53;;;13.92;100.00
60874;BME280;46715;40.642;-7.920;2023-07-31T05:52:27;96654.41;;;13.86;100.00
60874;BME280;46715;40.642;-7.920;2023-07-31T05:54:29;96652.28;;;13.88;100.00
60874;BME280;46715;40.642;-7.920;2023-07-31T05:56:29;96655.81;;;14.02;100.00
60874;BME280;46715;40.642;-7.920;2023-07-31T05:58:30;96660.50;;;14.05;100.00
60874;BME280;46715;40.642;-7.920;2023-07-31T06:00:31;96661.06;;;14.02;100.00
60874;BME280;46715;40.642;-7.920;2023-07-31T06:02:32;96654.53;;;14.00;100.00
60874;BME280;46715;40.642;-7.920;2023-07-31T06:04:36;96654.97;;;14.07;100.00
60874;BME280;46715;40.642;-7.920;2023-07-31T06:06:37;96656.59;;;14.03;100.00
60874;BME280;46715;40.642;-7.920;2023-07-31T06:08:37;96660.69;;;14.09;100.00
60874;BME280;46715;40.642;-7.920;2023-07-31T06:10:38;96656.97;;;14.15;100.00
60874;BME280;46715;40.642;-7.920;2023-07-31T06:12:38;96654.31;;;14.20;100.00
60874;BME280;46715;40.642;-7.920;2023-07-31T06:14:39;96650.59;;;14.21;100.00
60874;BME280;46715;40.642;-7.920;2023-07-31T06:16:39;96653.78;;;14.18;100.00
60874;BME280;46715;40.642;-7.920;2023-07-31T06:18:40;96657.53;;;14.12;100.00
60874;BME280;46715;40.642;-7.920;2023-07-31T06:20:40;96665.41;;;14.12;100.00
60874;BME280;46715;40.642;-7.920;2023-07-31T06:22:41;96657.47;;;14.17;100.00
60874;BME280;46715;40.642;-7.920;2023-07-31T06:24:42;96663.19;;;14.24;100.00
60874;BME280;46715;40.642;-7.920;2023-07-31T06:26:42;96661.75;;;14.32;100.00
60874;BME280;46715;40.642;-7.920;2023-07-31T06:28:43;96666.63;;;14.44;100.00
60874;BME280;46715;40.642;-7.920;2023-07-31T06:30:43;96673.00;;;14.57;100.00
60874;BME280;46715;40.642;-7.920;2023-07-31T06:32:43;96670.06;;;14.63;100.00
60874;BME280;46715;40.642;-7.920;2023-07-31T06:34:44;96670.09;;;14.58;100.00
60874;BME280;46715;40.642;-7.920;2023-07-31T06:36:45;96672.69;;;14.63;100.00
60874;BME280;46715;40.642;-7.920;2023-07-31T06:38:45;96666.97;;;14.80;100.00
60874;BME280;46715;40.642;-7.920;2023-07-31T06:40:46;96675.53;;;14.86;100.00
60874;BME280;46715;40.642;-7.920;2023-07-31T06:42:49;96664.13;;;14.96;100.00
60874;BME280;46715;40.642;-7.920;2023-07-31T06:44:50;96669.34;;;15.15;100.00
60874;BME280;46715;40.642;-7.920;2023-07-31T06:46:50;96671.06;;;15.06;100.00
60874;BME280;46715;40.642;-7.920;2023-07-31T06:48:51;96670.88;;;15.02;100.00
60874;BME280;46715;40.642;-7.920;2023-07-31T06:50:51;96668.59;;;14.95;100.00
60874;BME280;46715;40.642;-7.920;2023-07-31T06:52:52;96672.13;;;15.05;100.00
60874;BME280;46715;40.642;-7.920;2023-07-31T06:55:15;96672.00;;;14.96;100.00
60874;BME280;46715;40.642;-7.920;2023-07-31T06:57:18;96668.50;;;15.00;100.00
60874;BME280;46715;40.642;-7.920;2023-07-31T06:59:18;96667.59;;;15.10;100.00
60874;BME280;46715;40.642;-7.920;2023-07-31T07:01:19;96668.50;;;15.20;100.00
60874;BME280;46715;40.642;-7.920;2023-07-31T07:03:19;96673.97;;;15.23;100.00
60874;BME280;46715;40.642;-7.920;2023-07-31T07:05:20;96670.94;;;15.16;100.00
60874;BME280;46715;40.642;-7.920;2023-07-31T07:07:21;96671.69;;;15.16;100.00
60874;BME280;46715;40.642;-7.920;2023-07-31T07:09:21;96677.16;;;15.20;100.00
60874;BME280;46715;40.642;-7.920;2023-07-31T07:11:22;96677.59;;;15.27;100.00
60874;BME280;46715;40.642;-7.920;2023-07-31T07:13:22;96680.63;;;15.34;100.00
60874;BME280;46715;40.642;-7.920;2023-07-31T07:15:23;96685.09;;;15.34;100.00
60874;BME280;46715;40.642;-7.920;2023-07-31T07:17:24;96680.50;;;15.26;100.00
60874;BME280;46715;40.642;-7.920;2023-07-31T07:19:24;96682.50;;;15.15;100.00
60874;BME280;46715;40.642;-7.920;2023-07-31T07:21:25;96689.16;;;15.07;100.00
60874;BME280;46715;40.642;-7.920;2023-07-31T07:23:25;96688.22;;;15.17;100.00
60874;BME280;46715;40.642;-7.920;2023-07-31T07:25:26;96694.00;;;15.19;100.00
60874;BME280;46715;40.642;-7.920;2023-07-31T07:27:27;96690.28;;;15.53;100.00
60874;BME280;46715;40.642;-7.920;2023-07-31T07:29:28;96688.88;;;15.61;100.00
60874;BME280;46715;40.642;-7.920;2023-07-31T07:31:28;96694.50;;;15.54;100.00
60874;BME280;46715;40.642;-7.920;2023-07-31T07:33:29;96690.53;;;15.71;100.00
60874;BME280;46715;40.642;-7.920;2023-07-31T07:35:30;96691.00;;;15.92;100.00
60874;BME280;46715;40.642;-7.920;2023-07-31T07:37:30;96691.22;;;16.09;100.00
60874;BME280;46715;40.642;-7.920;2023-07-31T07:39:31;96696.19;;;16.39;100.00
60874;BME280;46715;40.642;-7.920;2023-07-31T07:41:31;96705.78;;;16.85;99.61
60874;BME280;46715;40.642;-7.920;2023-07-31T07:43:35;96701.19;;;16.91;97.51
60874;BME280;46715;40.642;-7.920;2023-07-31T07:45:36;96699.03;;;17.52;93.96
60874;BME280;46715;40.642;-7.920;2023-07-31T07:47:37;96697.47;;;17.96;90.85
60874;BME280;46715;40.642;-7.920;2023-07-31T07:49:38;96699.84;;;18.15;89.18
60874;BME280;46715;40.642;-7.920;2023-07-31T07:51:38;96705.81;;;18.30;87.85
60874;BME280;46715;40.642;-7.920;2023-07-31T07:53:39;96698.09;;;18.42;88.26
60874;BME280;46715;40.642;-7.920;2023-07-31T07:55:39;96701.41;;;18.83;85.80
60874;BME280;46715;40.642;-7.920;2023-07-31T07:57:40;96693.22;;;19.02;84.81
60874;BME280;46715;40.642;-7.920;2023-07-31T07:59:41;96691.31;;;19.46;82.93
60874;BME280;46715;40.642;-7.920;2023-07-31T08:01:41;96698.50;;;20.10;78.48
60874;BME280;46715;40.642;-7.920;2023-07-31T08:03:42;96688.47;;;21.39;72.77
60874;BME280;46715;40.642;-7.920;2023-07-31T08:05:43;96691.09;;;22.31;67.93
60874;BME280;46715;40.642;-7.920;2023-07-31T08:07:44;96681.88;;;23.19;62.59
60874;BME280;46715;40.642;-7.920;2023-07-31T08:09:45;96676.63;;;23.95;60.18
60874;BME280;46715;40.642;-7.920;2023-07-31T08:11:45;96678.78;;;24.92;56.73
60874;BME280;46715;40.642;-7.920;2023-07-31T08:13:46;96677.66;;;25.75;54.08
60874;BME280;46715;40.642;-7.920;2023-07-31T08:15:46;96682.16;;;25.94;51.61
60874;BME280;46715;40.642;-7.920;2023-07-31T08:17:47;96687.88;;;26.16;51.89
60874;BME280;46715;40.642;-7.920;2023-07-31T08:19:47;96677.63;;;27.05;49.50
60874;BME280;46715;40.642;-7.920;2023-07-31T08:21:48;96675.47;;;27.94;46.98
60874;BME280;46715;40.642;-7.920;2023-07-31T08:23:48;96672.94;;;28.74;43.48
60874;BME280;46715;40.642;-7.920;2023-07-31T08:25:49;96669.31;;;29.22;42.72
60874;BME280;46715;40.642;-7.920;2023-07-31T08:27:50;96670.94;;;29.63;41.63
60874;BME280;46715;40.642;-7.920;2023-07-31T08:29:52;96670.22;;;29.88;40.60
60874;BME280;46715;40.642;-7.920;2023-07-31T08:31:53;96672.50;;;29.75;41.59
60874;BME280;46715;40.642;-7.920;2023-07-31T08:33:54;96676.31;;;30.57;40.03
60874;BME280;46715;40.642;-7.920;2023-07-31T08:35:54;96666.28;;;30.68;38.46
60874;BME280;46715;40.642;-7.920;2023-07-31T08:37:55;96679.78;;;29.78;39.95
60874;BME280;46715;40.642;-7.920;2023-07-31T08:39:56;96665.56;;;30.32;39.75
60874;BME280;46715;40.642;-7.920;2023-07-31T08:41:59;96666.91;;;31.01;37.96
60874;BME280;46715;40.642;-7.920;2023-07-31T08:44:00;96664.94;;;31.20;37.02
60874;BME280;46715;40.642;-7.920;2023-07-31T08:46:01;96670.22;;;31.34;36.64
60874;BME280;46715;40.642;-7.920;2023-07-31T08:48:02;96664.03;;;31.41;36.71
60874;BME280;46715;40.642;-7.920;2023-07-31T08:50:03;96658.59;;;31.48;36.87
60874;BME280;46715;40.642;-7.920;2023-07-31T08:52:04;96658.75;;;31.26;36.89
60874;BME280;46715;40.642;-7.920;2023-07-31T08:54:04;96662.38;;;30.84;38.32
60874;BME280;46715;40.642;-7.920;2023-07-31T08:56:05;96661.94;;;30.92;38.08
60874;BME280;46715;40.642;-7.920;2023-07-31T08:58:06;96658.78;;;31.16;37.65
60874;BME280;46715;40.642;-7.920;2023-07-31T09:00:07;96659.84;;;30.15;39.43
60874;BME280;46715;40.642;-7.920;2023-07-31T09:02:08;96651.72;;;30.44;38.33
60874;BME280;46715;40.642;-7.920;2023-07-31T09:04:09;96651.59;;;31.65;37.15
60874;BME280;46715;40.642;-7.920;2023-07-31T09:06:11;96644.00;;;31.42;37.20
60874;BME280;46715;40.642;-7.920;2023-07-31T09:08:14;96647.47;;;31.99;36.67
60874;BME280;46715;40.642;-7.920;2023-07-31T09:10:15;96643.22;;;32.43;35.41
60874;BME280;46715;40.642;-7.920;2023-07-31T09:12:16;96650.66;;;32.66;35.06
60874;BME280;46715;40.642;-7.920;2023-07-31T09:14:16;96647.59;;;33.29;33.57
60874;BME280;46715;40.642;-7.920;2023-07-31T09:16:17;96647.31;;;31.68;36.02
60874;BME280;46715;40.642;-7.920;2023-07-31T09:18:18;96654.16;;;31.20;36.82
60874;BME280;46715;40.642;-7.920;2023-07-31T09:20:22;96648.63;;;30.38;38.60
60874;BME280;46715;40.642;-7.920;2023-07-31T09:22:32;96649.22;;;31.00;37.45
60874;BME280;46715;40.642;-7.920;2023-07-31T09:24:34;96658.28;;;31.95;36.89
60874;BME280;46715;40.642;-7.920;2023-07-31T09:26:35;96646.47;;;32.23;35.27
60874;BME280;46715;40.642;-7.920;2023-07-31T09:28:36;96658.28;;;30.00;39.04
60874;BME280;46715;40.642;-7.920;2023-07-31T09:30:50;96662.53;;;29.90;39.48
60874;BME280;46715;40.642;-7.920;2023-07-31T09:32:52;96658.19;;;31.50;37.26
60874;BME280;46715;40.642;-7.920;2023-07-31T09:35:00;96653.88;;;32.12;36.45
60874;BME280;46715;40.642;-7.920;2023-07-31T09:37:01;96648.56;;;32.81;34.97
60874;BME280;46715;40.642;-7.920;2023-07-31T09:39:02;96654.72;;;32.47;35.13
60874;BME280;46715;40.642;-7.920;2023-07-31T09:41:04;96652.13;;;31.94;36.12
60874;BME280;46715;40.642;-7.920;2023-07-31T09:43:06;96652.47;;;32.00;36.14
60874;BME280;46715;40.642;-7.920;2023-07-31T09:45:07;96654.00;;;32.77;35.06
60874;BME280;46715;40.642;-7.920;2023-07-31T09:47:21;96649.88;;;32.66;34.86
60874;BME280;46715;40.642;-7.920;2023-07-31T09:49:24;96654.72;;;31.53;36.88
60874;BME280;46715;40.642;-7.920;2023-07-31T09:51:28;96649.75;;;31.48;37.19
60874;BME280;46715;40.642;-7.920;2023-07-31T09:53:29;96656.59;;;31.67;36.96
60874;BME280;46715;40.642;-7.920;2023-07-31T09:55:30;96656.22;;;31.57;36.93
60874;BME280;46715;40.642;-7.920;2023-07-31T09:57:32;96657.69;;;31.06;37.43
60874;BME280;46715;40.642;-7.920;2023-07-31T09:59:33;96650.03;;;30.90;38.34
60874;BME280;46715;40.642;-7.920;2023-07-31T10:01:34;96655.41;;;31.68;37.62
60874;BME280;46715;40.642;-7.920;2023-07-31T10:03:35;96651.97;;;32.51;35.88
60874;BME280;46715;40.642;-7.920;2023-07-31T10:05:42;96643.06;;;33.19;34.74
60874;BME280;46715;40.642;-7.920;2023-07-31T10:07:45;96634.72;;;33.88;33.23
60874;BME280;46715;40.642;-7.920;2023-07-31T10:09:51;96632.50;;;33.83;32.94
60874;BME280;46715;40.642;-7.920;2023-07-31T10:11:55;96626.66;;;33.61;33.13
60874;BME280;46715;40.642;-7.920;2023-07-31T10:13:57;96632.03;;;32.41;34.95
60874;BME280;46715;40.642;-7.920;2023-07-31T10:15:58;96635.28;;;32.94;34.76
60874;BME280;46715;40.642;-7.920;2023-07-31T10:17:59;96630.47;;;33.63;34.10
60874;BME280;46715;40.642;-7.920;2023-07-31T10:19:59;96635.19;;;34.30;31.75
60874;BME280;46715;40.642;-7.920;2023-07-31T10:22:03;96641.78;;;32.66;34.60
60874;BME280;46715;40.642;-7.920;2023-07-31T10:24:05;96635.19;;;33.01;34.48
60874;BME280;46715;40.642;-7.920;2023-07-31T10:26:05;96641.78;;;34.06;33.05
60874;BME280;46715;40.642;-7.920;2023-07-31T10:28:08;96643.16;;;34.38;32.06
60874;BME280;46715;40.642;-7.920;2023-07-31T10:30:12;96640.38;;;33.46;33.58
60874;BME280;46715;40.642;-7.920;2023-07-31T10:32:15;96638.28;;;32.34;35.63
60874;BME280;46715;40.642;-7.920;2023-07-31T10:34:17;96641.09;;;31.78;36.12
60874;BME280;46715;40.642;-7.920;2023-07-31T10:36:18;96640.78;;;32.14;36.13
60874;BME280;46715;40.642;-7.920;2023-07-31T10:38:19;96640.53;;;31.98;36.56